Aérodrome :
LOGIN :

S'inscrire | Disclaimer

   EN    FR    IT 

 










Légende :    VFR   VFR Marginal   IFR   IFR Intensif   IFR Très Intensif
Visi : 
Plafond : 
>= 8 km
>= 3000ft
5 à 8 km
1000 à 3000 ft
1500m à 5 km
500 à 1000 ft
800 à 1500m
200 à 500 ft
< 800m
< 200 ft
Symboles :   Orages  Brouillard  Fortes neiges  Fortes précipitations  Vent > 20 kt
SIGMETs :   Divers  Orages  Givrage  Turbulence  Onde Orograph.  Cendres Volcan.






- Altitude de l'aérodrome : 1895 ft


LSMM - Meiringen

DERNIER METAR :
  • 121050Z AUTO 09003KT 9999NDV FEW041 06/02 Q1008 RMK

METARs EXPIRÉS :
  • 121020Z AUTO 08004KT 050V110 9999NDV SCT043 06/03 Q1008 RMK
  • 120950Z AUTO VRB02KT 9999NDV FEW021 BKN046 05/03 Q1009 RMK
  • 120920Z AUTO 09003KT 060V120 9000NDV FEW021 SCT048 04/03 Q1009 RMK
  • 120850Z AUTO 11003KT 060V130 7000NDV FEW018 SCT021 BKN049 04/03 Q1009 RMK
  • 120820Z AUTO VRB01KT 7000NDV SCT021 SCT029 OVC047 04/03 Q1009 RMK

Prévision TAF périmée.



MET'MAP, la Météo Aéronautique d'un coup d'oeil ! - Copyright ORBIFLY Décembre 2007 - Disclaimer

ORBIFLY MET'MAP TEAM :

Programmation & Développement : Alexandra Zaïnal
Conception & Développement : Baudouin d'Aumeries
Co-Programmation & Développement : Marc-Olivier Méhu
Soutien technique & logistique : Manuel Goepfert

Contact : metmap@orbifly.com




SOURCES & CREDITS :

   NOAA